sensor_id;sensor_type;location;lat;lon;timestamp;P1;durP1;ratioP1;P2;durP2;ratioP2
25946;SDS011;13745;51.470;9.894;2022-08-19T00:01:13;20.10;;;14.15;;
25946;SDS011;13745;51.470;9.894;2022-08-19T00:04:01;16.63;;;13.18;;
25946;SDS011;13745;51.470;9.894;2022-08-19T00:06:50;15.63;;;13.88;;
25946;SDS011;13745;51.470;9.894;2022-08-19T00:09:36;18.38;;;14.00;;
25946;SDS011;13745;51.470;9.894;2022-08-19T00:12:21;14.82;;;13.25;;
25946;SDS011;13745;51.470;9.894;2022-08-19T00:15:09;18.50;;;13.38;;
25946;SDS011;13745;51.470;9.894;2022-08-19T00:17:58;20.95;;;13.73;;
25946;SDS011;13745;51.470;9.894;2022-08-19T00:20:43;18.52;;;12.40;;
25946;SDS011;13745;51.470;9.894;2022-08-19T00:23:31;16.92;;;12.85;;
25946;SDS011;13745;51.470;9.894;2022-08-19T00:26:19;18.33;;;12.95;;
25946;SDS011;13745;51.470;9.894;2022-08-19T00:29:05;15.88;;;11.70;;
25946;SDS011;13745;51.470;9.894;2022-08-19T00:31:54;15.02;;;11.38;;
25946;SDS011;13745;51.470;9.894;2022-08-19T00:34:40;16.92;;;10.77;;
25946;SDS011;13745;51.470;9.894;2022-08-19T00:37:27;12.57;;;11.02;;
25946;SDS011;13745;51.470;9.894;2022-08-19T00:40:15;12.30;;;10.85;;
25946;SDS011;13745;51.470;9.894;2022-08-19T00:43:07;13.27;;;10.68;;
25946;SDS011;13745;51.470;9.894;2022-08-19T00:45:54;15.55;;;10.50;;
25946;SDS011;13745;51.470;9.894;2022-08-19T00:48:40;15.85;;;9.40;;
25946;SDS011;13745;51.470;9.894;2022-08-19T00:51:26;12.95;;;8.82;;
25946;SDS011;13745;51.470;9.894;2022-08-19T00:54:14;12.98;;;9.15;;
25946;SDS011;13745;51.470;9.894;2022-08-19T00:57:02;12.02;;;8.45;;
25946;SDS011;13745;51.470;9.894;2022-08-19T00:59:51;10.13;;;8.23;;
25946;SDS011;13745;51.470;9.894;2022-08-19T01:02:40;17.85;;;8.18;;
25946;SDS011;13745;51.470;9.894;2022-08-19T01:05:27;11.48;;;8.93;;
25946;SDS011;13745;51.470;9.894;2022-08-19T01:08:14;9.27;;;8.30;;
25946;SDS011;13745;51.470;9.894;2022-08-19T01:11:02;15.55;;;8.07;;
25946;SDS011;13745;51.470;9.894;2022-08-19T01:13:56;12.57;;;8.95;;
25946;SDS011;13745;51.470;9.894;2022-08-19T01:16:42;11.70;;;9.02;;
25946;SDS011;13745;51.470;9.894;2022-08-19T01:19:31;16.02;;;9.70;;
25946;SDS011;13745;51.470;9.894;2022-08-19T01:22:25;13.32;;;9.27;;
25946;SDS011;13745;51.470;9.894;2022-08-19T01:25:16;15.68;;;9.43;;
25946;SDS011;13745;51.470;9.894;2022-08-19T01:28:03;13.35;;;9.10;;
25946;SDS011;13745;51.470;9.894;2022-08-19T01:30:49;12.32;;;8.73;;
25946;SDS011;13745;51.470;9.894;2022-08-19T01:33:35;12.23;;;8.63;;
25946;SDS011;13745;51.470;9.894;2022-08-19T01:36:23;12.88;;;9.15;;
25946;SDS011;13745;51.470;9.894;2022-08-19T01:39:14;11.45;;;8.00;;
25946;SDS011;13745;51.470;9.894;2022-08-19T01:42:04;12.35;;;8.30;;
25946;SDS011;13745;51.470;9.894;2022-08-19T01:44:51;12.00;;;8.02;;
25946;SDS011;13745;51.470;9.894;2022-08-19T01:47:37;15.15;;;9.30;;
25946;SDS011;13745;51.470;9.894;2022-08-19T01:50:23;13.00;;;8.65;;
25946;SDS011;13745;51.470;9.894;2022-08-19T01:53:10;11.02;;;8.00;;
25946;SDS011;13745;51.470;9.894;2022-08-19T01:55:58;11.23;;;8.68;;
25946;SDS011;13745;51.470;9.894;2022-08-19T01:58:45;13.70;;;9.05;;
25946;SDS011;13745;51.470;9.894;2022-08-19T02:01:36;10.45;;;8.20;;
25946;SDS011;13745;51.470;9.894;2022-08-19T02:04:22;11.98;;;8.27;;
25946;SDS011;13745;51.470;9.894;2022-08-19T02:07:09;11.63;;;8.50;;
25946;SDS011;13745;51.470;9.894;2022-08-19T02:09:55;12.30;;;7.97;;
25946;SDS011;13745;51.470;9.894;2022-08-19T02:12:43;13.23;;;8.38;;
25946;SDS011;13745;51.470;9.894;2022-08-19T02:15:29;10.95;;;8.27;;
25946;SDS011;13745;51.470;9.894;2022-08-19T02:18:14;12.10;;;8.18;;
25946;SDS011;13745;51.470;9.894;2022-08-19T02:21:00;12.60;;;7.43;;
25946;SDS011;13745;51.470;9.894;2022-08-19T02:23:46;12.52;;;8.00;;
25946;SDS011;13745;51.470;9.894;2022-08-19T02:26:33;12.77;;;7.45;;
25946;SDS011;13745;51.470;9.894;2022-08-19T02:29:20;9.20;;;7.32;;
25946;SDS011;13745;51.470;9.894;2022-08-19T02:32:06;11.00;;;7.63;;
25946;SDS011;13745;51.470;9.894;2022-08-19T02:34:52;10.05;;;6.82;;
25946;SDS011;13745;51.470;9.894;2022-08-19T02:37:38;10.18;;;7.75;;
25946;SDS011;13745;51.470;9.894;2022-08-19T02:40:47;8.75;;;7.85;;
25946;SDS011;13745;51.470;9.894;2022-08-19T02:43:38;9.68;;;6.93;;
25946;SDS011;13745;51.470;9.894;2022-08-19T02:46:26;12.43;;;7.90;;
25946;SDS011;13745;51.470;9.894;2022-08-19T02:49:15;12.15;;;6.78;;
25946;SDS011;13745;51.470;9.894;2022-08-19T02:52:02;10.48;;;6.50;;
25946;SDS011;13745;51.470;9.894;2022-08-19T02:54:48;10.93;;;6.65;;
25946;SDS011;13745;51.470;9.894;2022-08-19T02:57:34;8.65;;;6.90;;
25946;SDS011;13745;51.470;9.894;2022-08-19T03:00:20;11.43;;;7.13;;
25946;SDS011;13745;51.470;9.894;2022-08-19T03:03:09;8.52;;;6.60;;
25946;SDS011;13745;51.470;9.894;2022-08-19T03:06:08;11.48;;;5.85;;
25946;SDS011;13745;51.470;9.894;2022-08-19T03:08:57;11.70;;;6.07;;
25946;SDS011;13745;51.470;9.894;2022-08-19T03:11:43;8.65;;;6.22;;
25946;SDS011;13745;51.470;9.894;2022-08-19T03:14:29;8.02;;;6.13;;
25946;SDS011;13745;51.470;9.894;2022-08-19T03:17:16;10.20;;;6.53;;
25946;SDS011;13745;51.470;9.894;2022-08-19T03:20:04;9.57;;;5.90;;
25946;SDS011;13745;51.470;9.894;2022-08-19T03:22:50;9.57;;;5.95;;
25946;SDS011;13745;51.470;9.894;2022-08-19T03:25:37;8.15;;;5.90;;
25946;SDS011;13745;51.470;9.894;2022-08-19T03:28:24;8.85;;;5.70;;
25946;SDS011;13745;51.470;9.894;2022-08-19T03:31:12;8.88;;;6.32;;
25946;SDS011;13745;51.470;9.894;2022-08-19T03:33:58;6.53;;;5.75;;
25946;SDS011;13745;51.470;9.894;2022-08-19T03:36:46;6.28;;;5.68;;
25946;SDS011;13745;51.470;9.894;2022-08-19T03:39:32;6.47;;;5.68;;
25946;SDS011;13745;51.470;9.894;2022-08-19T03:42:18;8.20;;;5.85;;
25946;SDS011;13745;51.470;9.894;2022-08-19T03:45:04;8.63;;;6.20;;
25946;SDS011;13745;51.470;9.894;2022-08-19T03:47:52;8.18;;;6.47;;
25946;SDS011;13745;51.470;9.894;2022-08-19T03:50:38;6.90;;;5.70;;
25946;SDS011;13745;51.470;9.894;2022-08-19T03:53:26;10.23;;;6.18;;
25946;SDS011;13745;51.470;9.894;2022-08-19T03:56:12;7.80;;;5.57;;
25946;SDS011;13745;51.470;9.894;2022-08-19T03:58:58;8.70;;;5.30;;
25946;SDS011;13745;51.470;9.894;2022-08-19T04:01:45;7.10;;;4.70;;
25946;SDS011;13745;51.470;9.894;2022-08-19T04:04:31;5.50;;;4.72;;
25946;SDS011;13745;51.470;9.894;2022-08-19T04:07:17;6.85;;;4.70;;
25946;SDS011;13745;51.470;9.894;2022-08-19T04:10:07;7.70;;;4.45;;
25946;SDS011;13745;51.470;9.894;2022-08-19T04:12:53;6.68;;;4.10;;
25946;SDS011;13745;51.470;9.894;2022-08-19T04:15:39;6.72;;;4.45;;
25946;SDS011;13745;51.470;9.894;2022-08-19T04:18:26;6.60;;;4.70;;
25946;SDS011;13745;51.470;9.894;2022-08-19T04:21:15;5.72;;;4.13;;
25946;SDS011;13745;51.470;9.894;2022-08-19T04:24:02;4.63;;;4.13;;
25946;SDS011;13745;51.470;9.894;2022-08-19T04:26:50;4.82;;;3.72;;
25946;SDS011;13745;51.470;9.894;2022-08-19T04:29:36;5.65;;;4.25;;
25946;SDS011;13745;51.470;9.894;2022-08-19T04:32:23;5.55;;;4.03;;
25946;SDS011;13745;51.470;9.894;2022-08-19T04:35:09;5.65;;;3.72;;
25946;SDS011;13745;51.470;9.894;2022-08-19T04:37:55;4.22;;;3.83;;
25946;SDS011;13745;51.470;9.894;2022-08-19T04:40:41;6.57;;;3.90;;
25946;SDS011;13745;51.470;9.894;2022-08-19T04:43:48;6.75;;;4.30;;
25946;SDS011;13745;51.470;9.894;2022-08-19T04:46:34;7.68;;;5.15;;
25946;SDS011;13745;51.470;9.894;2022-08-19T04:49:21;5.72;;;4.50;;
25946;SDS011;13745;51.470;9.894;2022-08-19T04:52:08;7.30;;;4.68;;
25946;SDS011;13745;51.470;9.894;2022-08-19T04:54:54;5.35;;;4.75;;
25946;SDS011;13745;51.470;9.894;2022-08-19T04:57:40;7.07;;;4.90;;
25946;SDS011;13745;51.470;9.894;2022-08-19T05:00:27;7.68;;;4.60;;
25946;SDS011;13745;51.470;9.894;2022-08-19T05:03:13;5.70;;;4.75;;
25946;SDS011;13745;51.470;9.894;2022-08-19T05:06:04;4.90;;;4.38;;
25946;SDS011;13745;51.470;9.894;2022-08-19T05:08:51;7.43;;;4.93;;
25946;SDS011;13745;51.470;9.894;2022-08-19T05:11:37;6.07;;;5.07;;
25946;SDS011;13745;51.470;9.894;2022-08-19T05:14:23;8.85;;;6.07;;
25946;SDS011;13745;51.470;9.894;2022-08-19T05:17:10;6.82;;;5.78;;
25946;SDS011;13745;51.470;9.894;2022-08-19T05:19:56;7.95;;;5.53;;
25946;SDS011;13745;51.470;9.894;2022-08-19T05:23:00;8.95;;;5.15;;
25946;SDS011;13745;51.470;9.894;2022-08-19T05:25:46;7.13;;;5.13;;
25946;SDS011;13745;51.470;9.894;2022-08-19T05:28:32;8.27;;;5.00;;
25946;SDS011;13745;51.470;9.894;2022-08-19T05:31:18;7.50;;;4.60;;
25946;SDS011;13745;51.470;9.894;2022-08-19T05:34:06;7.75;;;4.38;;
25946;SDS011;13745;51.470;9.894;2022-08-19T05:36:53;5.90;;;5.30;;
25946;SDS011;13745;51.470;9.894;2022-08-19T05:39:41;9.88;;;5.05;;
25946;SDS011;13745;51.470;9.894;2022-08-19T05:42:27;8.13;;;5.15;;
25946;SDS011;13745;51.470;9.894;2022-08-19T05:45:13;6.53;;;4.97;;
25946;SDS011;13745;51.470;9.894;2022-08-19T05:47:58;7.05;;;4.65;;
25946;SDS011;13745;51.470;9.894;2022-08-19T05:50:46;12.25;;;4.60;;
25946;SDS011;13745;51.470;9.894;2022-08-19T05:53:34;5.38;;;4.60;;
25946;SDS011;13745;51.470;9.894;2022-08-19T05:56:20;4.63;;;4.18;;
25946;SDS011;13745;51.470;9.894;2022-08-19T05:59:07;8.63;;;4.70;;
25946;SDS011;13745;51.470;9.894;2022-08-19T06:01:55;7.68;;;3.88;;
25946;SDS011;13745;51.470;9.894;2022-08-19T06:04:41;5.57;;;4.32;;
25946;SDS011;13745;51.470;9.894;2022-08-19T06:07:29;15.75;;;4.30;;
25946;SDS011;13745;51.470;9.894;2022-08-19T06:10:14;7.13;;;3.75;;
25946;SDS011;13745;51.470;9.894;2022-08-19T06:13:00;3.70;;;2.97;;
25946;SDS011;13745;51.470;9.894;2022-08-19T06:15:46;4.15;;;3.38;;
25946;SDS011;13745;51.470;9.894;2022-08-19T06:18:32;5.05;;;3.30;;
25946;SDS011;13745;51.470;9.894;2022-08-19T06:21:18;7.85;;;3.55;;
25946;SDS011;13745;51.470;9.894;2022-08-19T06:24:07;6.68;;;3.42;;
25946;SDS011;13745;51.470;9.894;2022-08-19T06:26:56;3.90;;;3.13;;
25946;SDS011;13745;51.470;9.894;2022-08-19T06:29:42;4.45;;;3.47;;
25946;SDS011;13745;51.470;9.894;2022-08-19T06:32:28;5.20;;;3.03;;
25946;SDS011;13745;51.470;9.894;2022-08-19T06:35:14;6.55;;;3.30;;
25946;SDS011;13745;51.470;9.894;2022-08-19T06:38:01;3.22;;;2.72;;
25946;SDS011;13745;51.470;9.894;2022-08-19T06:40:49;3.22;;;2.58;;
25946;SDS011;13745;51.470;9.894;2022-08-19T06:43:34;6.38;;;3.53;;
25946;SDS011;13745;51.470;9.894;2022-08-19T06:46:22;4.90;;;2.95;;
25946;SDS011;13745;51.470;9.894;2022-08-19T06:49:08;5.03;;;2.97;;
25946;SDS011;13745;51.470;9.894;2022-08-19T06:51:58;4.78;;;2.92;;
25946;SDS011;13745;51.470;9.894;2022-08-19T06:54:44;4.35;;;3.22;;
25946;SDS011;13745;51.470;9.894;2022-08-19T06:57:32;3.47;;;3.17;;
25946;SDS011;13745;51.470;9.894;2022-08-19T07:00:18;4.57;;;2.97;;
25946;SDS011;13745;51.470;9.894;2022-08-19T07:03:04;6.70;;;2.92;;
25946;SDS011;13745;51.470;9.894;2022-08-19T07:05:49;4.65;;;3.03;;
25946;SDS011;13745;51.470;9.894;2022-08-19T07:08:36;4.25;;;3.42;;
25946;SDS011;13745;51.470;9.894;2022-08-19T07:11:25;3.38;;;2.83;;
25946;SDS011;13745;51.470;9.894;2022-08-19T07:14:12;3.95;;;3.22;;
25946;SDS011;13745;51.470;9.894;2022-08-19T07:16:59;5.05;;;3.05;;
25946;SDS011;13745;51.470;9.894;2022-08-19T07:19:45;4.60;;;3.28;;
25946;SDS011;13745;51.470;9.894;2022-08-19T07:22:31;3.92;;;2.88;;
25946;SDS011;13745;51.470;9.894;2022-08-19T07:25:18;3.65;;;2.90;;
25946;SDS011;13745;51.470;9.894;2022-08-19T07:28:05;5.72;;;3.55;;
25946;SDS011;13745;51.470;9.894;2022-08-19T07:30:55;5.07;;;2.60;;
25946;SDS011;13745;51.470;9.894;2022-08-19T07:33:41;3.40;;;2.63;;
25946;SDS011;13745;51.470;9.894;2022-08-19T07:36:28;3.00;;;2.65;;
25946;SDS011;13745;51.470;9.894;2022-08-19T07:39:17;2.53;;;2.33;;
25946;SDS011;13745;51.470;9.894;2022-08-19T07:42:07;4.82;;;3.30;;
25946;SDS011;13745;51.470;9.894;2022-08-19T07:44:54;3.75;;;2.92;;
25946;SDS011;13745;51.470;9.894;2022-08-19T07:47:41;4.70;;;3.28;;
25946;SDS011;13745;51.470;9.894;2022-08-19T07:50:27;4.32;;;2.90;;
25946;SDS011;13745;51.470;9.894;2022-08-19T07:53:13;3.65;;;3.15;;
25946;SDS011;13745;51.470;9.894;2022-08-19T07:55:59;3.20;;;2.90;;
25946;SDS011;13745;51.470;9.894;2022-08-19T07:58:48;3.45;;;3.10;;
25946;SDS011;13745;51.470;9.894;2022-08-19T08:01:35;2.80;;;2.60;;
25946;SDS011;13745;51.470;9.894;2022-08-19T08:04:25;3.13;;;2.83;;
25946;SDS011;13745;51.470;9.894;2022-08-19T08:07:29;8.90;;;3.67;;
25946;SDS011;13745;51.470;9.894;2022-08-19T08:10:33;4.75;;;2.33;;
25946;SDS011;13745;51.470;9.894;2022-08-19T08:13:19;3.33;;;2.35;;
25946;SDS011;13745;51.470;9.894;2022-08-19T08:16:05;3.50;;;2.22;;
25946;SDS011;13745;51.470;9.894;2022-08-19T08:18:51;2.85;;;2.35;;
25946;SDS011;13745;51.470;9.894;2022-08-19T08:21:38;3.47;;;2.33;;
25946;SDS011;13745;51.470;9.894;2022-08-19T08:24:24;2.90;;;2.25;;
25946;SDS011;13745;51.470;9.894;2022-08-19T08:27:11;4.30;;;2.40;;
25946;SDS011;13745;51.470;9.894;2022-08-19T08:29:57;5.40;;;2.25;;
25946;SDS011;13745;51.470;9.894;2022-08-19T08:32:43;3.95;;;2.25;;
25946;SDS011;13745;51.470;9.894;2022-08-19T08:35:29;5.38;;;2.70;;
25946;SDS011;13745;51.470;9.894;2022-08-19T08:38:17;4.07;;;2.30;;
25946;SDS011;13745;51.470;9.894;2022-08-19T08:41:05;4.82;;;2.17;;
25946;SDS011;13745;51.470;9.894;2022-08-19T08:43:55;4.30;;;1.90;;
25946;SDS011;13745;51.470;9.894;2022-08-19T08:46:44;4.88;;;1.85;;
25946;SDS011;13745;51.470;9.894;2022-08-19T08:49:33;4.22;;;2.20;;
25946;SDS011;13745;51.470;9.894;2022-08-19T08:52:27;3.10;;;2.17;;
25946;SDS011;13745;51.470;9.894;2022-08-19T08:55:20;5.78;;;1.98;;
25946;SDS011;13745;51.470;9.894;2022-08-19T08:58:09;3.95;;;2.40;;
25946;SDS011;13745;51.470;9.894;2022-08-19T09:00:59;3.20;;;2.08;;
25946;SDS011;13745;51.470;9.894;2022-08-19T09:03:45;5.68;;;2.70;;
25946;SDS011;13745;51.470;9.894;2022-08-19T09:06:32;3.95;;;2.60;;
25946;SDS011;13745;51.470;9.894;2022-08-19T09:09:25;3.17;;;2.10;;
25946;SDS011;13745;51.470;9.894;2022-08-19T09:12:19;4.72;;;2.13;;
25946;SDS011;13745;51.470;9.894;2022-08-19T09:15:13;5.20;;;2.35;;
25946;SDS011;13745;51.470;9.894;2022-08-19T09:18:00;4.25;;;2.20;;
25946;SDS011;13745;51.470;9.894;2022-08-19T09:20:47;2.80;;;2.38;;
25946;SDS011;13745;51.470;9.894;2022-08-19T09:23:33;4.50;;;2.20;;
25946;SDS011;13745;51.470;9.894;2022-08-19T09:26:20;3.70;;;2.38;;
25946;SDS011;13745;51.470;9.894;2022-08-19T09:29:08;3.42;;;1.92;;
25946;SDS011;13745;51.470;9.894;2022-08-19T09:31:54;2.20;;;1.77;;
25946;SDS011;13745;51.470;9.894;2022-08-19T09:34:40;3.33;;;2.05;;
25946;SDS011;13745;51.470;9.894;2022-08-19T09:37:27;3.95;;;1.85;;
25946;SDS011;13745;51.470;9.894;2022-08-19T09:40:13;2.47;;;1.67;;
25946;SDS011;13745;51.470;9.894;2022-08-19T09:42:59;3.75;;;1.90;;
25946;SDS011;13745;51.470;9.894;2022-08-19T09:45:48;3.47;;;1.50;;
25946;SDS011;13745;51.470;9.894;2022-08-19T09:48:33;3.50;;;1.70;;
25946;SDS011;13745;51.470;9.894;2022-08-19T09:51:20;2.53;;;1.63;;
25946;SDS011;13745;51.470;9.894;2022-08-19T09:54:08;2.10;;;1.90;;
25946;SDS011;13745;51.470;9.894;2022-08-19T09:56:54;2.38;;;1.60;;
25946;SDS011;13745;51.470;9.894;2022-08-19T09:59:40;2.67;;;1.55;;
25946;SDS011;13745;51.470;9.894;2022-08-19T10:02:28;2.35;;;1.50;;
25946;SDS011;13745;51.470;9.894;2022-08-19T10:05:14;1.38;;;1.27;;
25946;SDS011;13745;51.470;9.894;2022-08-19T10:08:18;3.03;;;1.52;;
25946;SDS011;13745;51.470;9.894;2022-08-19T10:11:06;1.58;;;1.48;;
25946;SDS011;13745;51.470;9.894;2022-08-19T10:13:54;1.73;;;1.02;;
25946;SDS011;13745;51.470;9.894;2022-08-19T10:16:40;1.50;;;1.17;;
25946;SDS011;13745;51.470;9.894;2022-08-19T10:19:28;1.50;;;1.40;;
25946;SDS011;13745;51.470;9.894;2022-08-19T10:22:17;1.30;;;1.20;;
25946;SDS011;13745;51.470;9.894;2022-08-19T10:25:04;3.38;;;1.30;;
25946;SDS011;13745;51.470;9.894;2022-08-19T10:27:51;2.00;;;1.20;;
25946;SDS011;13745;51.470;9.894;2022-08-19T10:30:37;1.50;;;0.93;;
25946;SDS011;13745;51.470;9.894;2022-08-19T10:33:23;2.45;;;1.33;;
25946;SDS011;13745;51.470;9.894;2022-08-19T10:36:12;1.25;;;1.00;;
25946;SDS011;13745;51.470;9.894;2022-08-19T10:39:04;1.65;;;1.15;;
25946;SDS011;13745;51.470;9.894;2022-08-19T10:41:51;1.55;;;1.05;;
25946;SDS011;13745;51.470;9.894;2022-08-19T10:44:37;6.07;;;1.52;;
25946;SDS011;13745;51.470;9.894;2022-08-19T10:47:23;1.98;;;1.15;;
25946;SDS011;13745;51.470;9.894;2022-08-19T10:50:09;4.70;;;1.23;;
25946;SDS011;13745;51.470;9.894;2022-08-19T10:53:14;2.60;;;1.05;;
25946;SDS011;13745;51.470;9.894;2022-08-19T10:56:00;2.10;;;1.25;;
25946;SDS011;13745;51.470;9.894;2022-08-19T10:59:04;2.42;;;1.13;;
25946;SDS011;13745;51.470;9.894;2022-08-19T11:01:50;1.80;;;1.20;;
25946;SDS011;13745;51.470;9.894;2022-08-19T11:04:36;3.67;;;1.10;;
25946;SDS011;13745;51.470;9.894;2022-08-19T11:07:23;3.80;;;1.40;;
25946;SDS011;13745;51.470;9.894;2022-08-19T11:10:12;1.55;;;0.90;;
25946;SDS011;13745;51.470;9.894;2022-08-19T11:13:02;1.00;;;0.90;;
25946;SDS011;13745;51.470;9.894;2022-08-19T11:15:55;2.45;;;1.08;;
25946;SDS011;13745;51.470;9.894;2022-08-19T11:18:43;3.92;;;1.30;;
25946;SDS011;13745;51.470;9.894;2022-08-19T11:21:31;1.63;;;1.00;;
25946;SDS011;13745;51.470;9.894;2022-08-19T11:24:19;1.17;;;0.90;;
25946;SDS011;13745;51.470;9.894;2022-08-19T11:27:08;1.83;;;1.27;;
25946;SDS011;13745;51.470;9.894;2022-08-19T11:29:55;1.60;;;1.00;;
25946;SDS011;13745;51.470;9.894;2022-08-19T11:32:41;3.40;;;1.27;;
25946;SDS011;13745;51.470;9.894;2022-08-19T11:35:27;4.07;;;1.15;;
25946;SDS011;13745;51.470;9.894;2022-08-19T11:38:13;1.45;;;1.17;;
25946;SDS011;13745;51.470;9.894;2022-08-19T11:40:59;2.22;;;1.50;;
25946;SDS011;13745;51.470;9.894;2022-08-19T11:43:48;1.63;;;0.93;;
25946;SDS011;13745;51.470;9.894;2022-08-19T11:46:34;1.38;;;1.27;;
25946;SDS011;13745;51.470;9.894;2022-08-19T11:49:22;3.45;;;1.10;;
25946;SDS011;13745;51.470;9.894;2022-08-19T11:52:08;1.33;;;1.00;;
25946;SDS011;13745;51.470;9.894;2022-08-19T11:54:55;1.92;;;1.20;;
25946;SDS011;13745;51.470;9.894;2022-08-19T11:57:41;1.65;;;1.08;;
25946;SDS011;13745;51.470;9.894;2022-08-19T12:00:29;1.60;;;0.98;;
25946;SDS011;13745;51.470;9.894;2022-08-19T12:03:14;2.60;;;1.63;;
25946;SDS011;13745;51.470;9.894;2022-08-19T12:06:02;1.77;;;1.10;;
25946;SDS011;13745;51.470;9.894;2022-08-19T12:08:49;4.18;;;1.35;;
25946;SDS011;13745;51.470;9.894;2022-08-19T12:11:35;6.93;;;1.20;;
25946;SDS011;13745;51.470;9.894;2022-08-19T12:14:22;2.97;;;0.90;;
25946;SDS011;13745;51.470;9.894;2022-08-19T12:17:09;2.85;;;1.20;;
25946;SDS011;13745;51.470;9.894;2022-08-19T12:19:55;2.08;;;1.10;;
25946;SDS011;13745;51.470;9.894;2022-08-19T12:22:41;1.33;;;1.10;;
25946;SDS011;13745;51.470;9.894;2022-08-19T12:25:27;2.38;;;1.30;;
25946;SDS011;13745;51.470;9.894;2022-08-19T12:28:13;2.65;;;1.17;;
25946;SDS011;13745;51.470;9.894;2022-08-19T12:30:59;3.47;;;1.33;;
25946;SDS011;13745;51.470;9.894;2022-08-19T12:33:46;2.63;;;1.20;;
25946;SDS011;13745;51.470;9.894;2022-08-19T12:36:32;1.27;;;1.17;;
25946;SDS011;13745;51.470;9.894;2022-08-19T12:39:18;1.73;;;1.23;;
25946;SDS011;13745;51.470;9.894;2022-08-19T12:42:04;3.17;;;1.30;;
25946;SDS011;13745;51.470;9.894;2022-08-19T12:44:53;1.95;;;1.60;;
25946;SDS011;13745;51.470;9.894;2022-08-19T12:47:39;3.83;;;1.45;;
25946;SDS011;13745;51.470;9.894;2022-08-19T12:50:26;1.63;;;1.40;;
25946;SDS011;13745;51.470;9.894;2022-08-19T12:53:12;1.75;;;1.33;;
25946;SDS011;13745;51.470;9.894;2022-08-19T12:55:58;1.52;;;1.42;;
25946;SDS011;13745;51.470;9.894;2022-08-19T12:58:44;2.13;;;1.50;;
25946;SDS011;13745;51.470;9.894;2022-08-19T13:01:30;2.28;;;1.70;;
25946;SDS011;13745;51.470;9.894;2022-08-19T13:04:17;2.72;;;1.15;;
25946;SDS011;13745;51.470;9.894;2022-08-19T13:07:04;2.03;;;1.25;;
25946;SDS011;13745;51.470;9.894;2022-08-19T13:09:50;1.88;;;1.25;;
25946;SDS011;13745;51.470;9.894;2022-08-19T13:12:36;1.90;;;1.75;;
25946;SDS011;13745;51.470;9.894;2022-08-19T13:15:22;2.38;;;1.30;;
25946;SDS011;13745;51.470;9.894;2022-08-19T13:18:08;2.10;;;1.75;;
25946;SDS011;13745;51.470;9.894;2022-08-19T13:20:55;4.00;;;1.30;;
25946;SDS011;13745;51.470;9.894;2022-08-19T13:23:42;1.58;;;1.23;;
25946;SDS011;13745;51.470;9.894;2022-08-19T13:26:28;2.95;;;1.40;;
25946;SDS011;13745;51.470;9.894;2022-08-19T13:29:14;1.73;;;1.38;;
25946;SDS011;13745;51.470;9.894;2022-08-19T13:32:18;1.42;;;1.33;;
25946;SDS011;13745;51.470;9.894;2022-08-19T13:35:22;3.63;;;1.25;;
25946;SDS011;13745;51.470;9.894;2022-08-19T13:38:07;3.30;;;1.50;;
25946;SDS011;13745;51.470;9.894;2022-08-19T13:40:55;1.52;;;1.42;;
25946;SDS011;13745;51.470;9.894;2022-08-19T13:43:41;2.63;;;1.20;;
25946;SDS011;13745;51.470;9.894;2022-08-19T13:46:27;1.45;;;1.00;;
25946;SDS011;13745;51.470;9.894;2022-08-19T13:49:14;3.90;;;1.20;;
25946;SDS011;13745;51.470;9.894;2022-08-19T13:52:01;3.13;;;1.10;;
25946;SDS011;13745;51.470;9.894;2022-08-19T13:54:48;3.22;;;1.83;;
25946;SDS011;13745;51.470;9.894;2022-08-19T13:57:35;1.48;;;1.17;;
25946;SDS011;13745;51.470;9.894;2022-08-19T14:00:24;2.13;;;1.10;;
25946;SDS011;13745;51.470;9.894;2022-08-19T14:03:11;1.20;;;1.10;;
25946;SDS011;13745;51.470;9.894;2022-08-19T14:05:57;1.15;;;1.00;;
25946;SDS011;13745;51.470;9.894;2022-08-19T14:08:43;2.15;;;1.10;;
25946;SDS011;13745;51.470;9.894;2022-08-19T14:11:29;1.23;;;0.98;;
25946;SDS011;13745;51.470;9.894;2022-08-19T14:14:16;1.50;;;1.00;;
25946;SDS011;13745;51.470;9.894;2022-08-19T14:17:02;1.40;;;1.13;;
25946;SDS011;13745;51.470;9.894;2022-08-19T14:19:55;1.35;;;1.20;;
25946;SDS011;13745;51.470;9.894;2022-08-19T14:22:42;1.35;;;1.20;;
25946;SDS011;13745;51.470;9.894;2022-08-19T14:25:29;1.40;;;1.15;;
25946;SDS011;13745;51.470;9.894;2022-08-19T14:28:15;3.28;;;1.20;;
25946;SDS011;13745;51.470;9.894;2022-08-19T14:31:03;3.13;;;1.33;;
25946;SDS011;13745;51.470;9.894;2022-08-19T14:33:49;1.27;;;1.13;;
25946;SDS011;13745;51.470;9.894;2022-08-19T14:36:35;3.90;;;1.70;;
25946;SDS011;13745;51.470;9.894;2022-08-19T14:39:21;1.50;;;1.40;;
25946;SDS011;13745;51.470;9.894;2022-08-19T14:42:07;1.73;;;1.00;;
25946;SDS011;13745;51.470;9.894;2022-08-19T14:44:56;1.58;;;1.30;;
25946;SDS011;13745;51.470;9.894;2022-08-19T14:47:44;1.65;;;1.55;;
25946;SDS011;13745;51.470;9.894;2022-08-19T14:50:30;1.20;;;1.10;;
25946;SDS011;13745;51.470;9.894;2022-08-19T14:53:16;4.07;;;1.58;;
25946;SDS011;13745;51.470;9.894;2022-08-19T14:56:06;1.70;;;1.40;;
25946;SDS011;13745;51.470;9.894;2022-08-19T14:58:52;2.50;;;1.50;;
25946;SDS011;13745;51.470;9.894;2022-08-19T15:01:41;2.35;;;1.38;;
25946;SDS011;13745;51.470;9.894;2022-08-19T15:04:28;4.45;;;1.40;;
25946;SDS011;13745;51.470;9.894;2022-08-19T15:07:14;1.52;;;1.42;;
25946;SDS011;13745;51.470;9.894;2022-08-19T15:10:00;1.92;;;1.67;;
25946;SDS011;13745;51.470;9.894;2022-08-19T15:12:46;2.58;;;1.60;;
25946;SDS011;13745;51.470;9.894;2022-08-19T15:15:32;1.30;;;1.20;;
25946;SDS011;13745;51.470;9.894;2022-08-19T15:18:19;1.30;;;1.20;;
25946;SDS011;13745;51.470;9.894;2022-08-19T15:21:07;4.70;;;1.58;;
25946;SDS011;13745;51.470;9.894;2022-08-19T15:23:54;2.33;;;1.25;;
25946;SDS011;13745;51.470;9.894;2022-08-19T15:26:41;3.95;;;1.67;;
25946;SDS011;13745;51.470;9.894;2022-08-19T15:29:27;2.17;;;1.30;;
25946;SDS011;13745;51.470;9.894;2022-08-19T15:32:13;2.95;;;1.45;;
25946;SDS011;13745;51.470;9.894;2022-08-19T15:34:59;1.58;;;1.45;;
25946;SDS011;13745;51.470;9.894;2022-08-19T15:37:48;1.50;;;1.40;;
25946;SDS011;13745;51.470;9.894;2022-08-19T15:40:35;2.40;;;1.50;;
25946;SDS011;13745;51.470;9.894;2022-08-19T15:43:21;4.72;;;1.38;;
25946;SDS011;13745;51.470;9.894;2022-08-19T15:46:07;1.48;;;1.20;;
25946;SDS011;13745;51.470;9.894;2022-08-19T15:48:52;2.17;;;1.40;;
25946;SDS011;13745;51.470;9.894;2022-08-19T15:51:40;6.10;;;1.58;;
25946;SDS011;13745;51.470;9.894;2022-08-19T15:54:28;1.85;;;1.10;;
25946;SDS011;13745;51.470;9.894;2022-08-19T15:57:14;1.95;;;1.45;;
25946;SDS011;13745;51.470;9.894;2022-08-19T16:00:18;1.67;;;1.38;;
25946;SDS011;13745;51.470;9.894;2022-08-19T16:03:21;1.92;;;1.40;;
25946;SDS011;13745;51.470;9.894;2022-08-19T16:06:25;2.28;;;1.50;;
25946;SDS011;13745;51.470;9.894;2022-08-19T16:09:11;1.70;;;1.08;;
25946;SDS011;13745;51.470;9.894;2022-08-19T16:11:59;1.85;;;1.23;;
25946;SDS011;13745;51.470;9.894;2022-08-19T16:14:48;1.90;;;1.30;;
25946;SDS011;13745;51.470;9.894;2022-08-19T16:17:34;1.38;;;1.25;;
25946;SDS011;13745;51.470;9.894;2022-08-19T16:20:20;1.42;;;1.13;;
25946;SDS011;13745;51.470;9.894;2022-08-19T16:23:06;1.48;;;1.23;;
25946;SDS011;13745;51.470;9.894;2022-08-19T16:25:52;1.50;;;1.40;;
25946;SDS011;13745;51.470;9.894;2022-08-19T16:28:39;1.45;;;1.35;;
25946;SDS011;13745;51.470;9.894;2022-08-19T16:31:26;1.85;;;1.13;;
25946;SDS011;13745;51.470;9.894;2022-08-19T16:34:13;1.67;;;1.50;;
25946;SDS011;13745;51.470;9.894;2022-08-19T16:36:58;2.20;;;1.52;;
25946;SDS011;13745;51.470;9.894;2022-08-19T16:39:44;1.42;;;1.33;;
25946;SDS011;13745;51.470;9.894;2022-08-19T16:42:31;1.27;;;1.15;;
25946;SDS011;13745;51.470;9.894;2022-08-19T16:45:18;3.13;;;1.58;;
25946;SDS011;13745;51.470;9.894;2022-08-19T16:48:05;3.47;;;1.23;;